Cape Magnolia — 3FGP2 — position and weather

sailwx.info

Track history (hours):
 
Tides and Currents Weather Stations Pressure Air Temp Water Temp Dewpoint Dewpoint Depression Visibility Wind Speed Wind Dir Waves Ship Positions

Cape Magnolia

Last reported at 2016-Sep-19 11:07 UTC. Time now 2016-Sep-26 12:14 UTC.
Position N 33°54' E 134°54'.

Length 292 m; draft 9.2 m.

Type: Cargo ship. MMSI: 357427000.

Date/timePositionNaut miles runAvg speedWind from/ knotsBaromVisibWave heightAir tempDewpointWater temp
2016-Sep-19 11:07N 33°54' E 134°54'2214.2
2016-Sep-19 09:33N 34°16' E 134°58'2110.5
2016-Sep-19 07:33N 34°37' E 134°58'  
2016-Sep-10 01:07N 34°31' E 134°40'813.5
2016-Sep-10 00:31N 34°34' E 134°49'1110.9
2016-Sep-09 23:33N 34°37' E 135°01'7 6.5
2016-Sep-09 22:33N 34°34' E 135°08'8 7.7
2016-Sep-09 21:33N 34°26' E 135°05'1212.3
2016-Sep-09 20:33N 34°15' E 134°59'1110.6
2016-Sep-09 19:33N 34°05' E 134°59'1111.0
2016-Sep-09 18:33N 33°54' E 134°59'  
Track history (hours):
 
Tides and Currents Weather Stations Pressure Air Temp Water Temp Dewpoint Dewpoint Depression Visibility Wind Speed Wind Dir Waves Ship Positions

Cape Magnolia

Last reported at 2016-Sep-19 11:07 UTC. Time now 2016-Sep-26 12:14 UTC.
Position N 33°54' E 134°54'.

Length 292 m; draft 9.2 m.

Type: Cargo ship. MMSI: 357427000.

Date/timePositionNaut miles runAvg speedWind from/ knotsBaromVisibWave heightAir tempDewpointWater temp
2016-Sep-19 11:07N 33°54' E 134°54'2214.2
2016-Sep-19 09:33N 34°16' E 134°58'2110.5
2016-Sep-19 07:33N 34°37' E 134°58'  
2016-Sep-10 01:07N 34°31' E 134°40'813.5
2016-Sep-10 00:31N 34°34' E 134°49'1110.9
2016-Sep-09 23:33N 34°37' E 135°01'7 6.5
2016-Sep-09 22:33N 34°34' E 135°08'8 7.7
2016-Sep-09 21:33N 34°26' E 135°05'1212.3
2016-Sep-09 20:33N 34°15' E 134°59'1110.6
2016-Sep-09 19:33N 34°05' E 134°59'1111.0
2016-Sep-09 18:33N 33°54' E 134°59'  

Dump ship's entire track history